sensor_id;sensor_type;location;lat;lon;timestamp;pressure;altitude;pressure_sealevel;temperature;humidity
69751;BME280;57335;52.288;6.056;2022-09-09T00:02:01;100769.88;;;15.30;99.16
69751;BME280;57335;52.288;6.056;2022-09-09T00:04:34;100776.75;;;15.31;99.58
69751;BME280;57335;52.288;6.056;2022-09-09T00:10:32;100771.47;;;15.31;99.15
69751;BME280;57335;52.288;6.056;2022-09-09T00:21:26;100761.41;;;15.28;100.00
69751;BME280;57335;52.288;6.056;2022-09-09T00:23:57;100762.13;;;15.24;100.00
69751;BME280;57335;52.288;6.056;2022-09-09T00:26:45;100764.28;;;15.27;100.00
69751;BME280;57335;52.288;6.056;2022-09-09T00:29:28;100771.41;;;15.26;100.00
69751;BME280;57335;52.288;6.056;2022-09-09T00:32:21;100762.25;;;15.17;100.00
69751;BME280;57335;52.288;6.056;2022-09-09T00:34:57;100760.91;;;15.14;100.00
69751;BME280;57335;52.288;6.056;2022-09-09T00:37:26;100763.78;;;15.13;100.00
69751;BME280;57335;52.288;6.056;2022-09-09T00:39:57;100761.13;;;15.13;100.00
69751;BME280;57335;52.288;6.056;2022-09-09T00:42:43;100755.06;;;15.12;99.24
69751;BME280;57335;52.288;6.056;2022-09-09T00:45:39;100748.91;;;15.07;99.01
69751;BME280;57335;52.288;6.056;2022-09-09T00:48:10;100750.00;;;15.11;98.64
69751;BME280;57335;52.288;6.056;2022-09-09T00:53:39;100738.25;;;15.02;99.60
69751;BME280;57335;52.288;6.056;2022-09-09T00:58:32;100727.47;;;14.74;100.00
69751;BME280;57335;52.288;6.056;2022-09-09T01:01:08;100739.28;;;14.84;100.00
69751;BME280;57335;52.288;6.056;2022-09-09T01:03:38;100737.44;;;14.84;100.00
69751;BME280;57335;52.288;6.056;2022-09-09T01:06:16;100732.38;;;14.83;100.00
69751;BME280;57335;52.288;6.056;2022-09-09T01:08:56;100727.81;;;14.78;100.00
69751;BME280;57335;52.288;6.056;2022-09-09T01:20:02;100728.84;;;14.77;99.84
69751;BME280;57335;52.288;6.056;2022-09-09T01:22:37;100733.09;;;14.78;100.00
69751;BME280;57335;52.288;6.056;2022-09-09T01:25:29;100731.03;;;14.80;99.60
69751;BME280;57335;52.288;6.056;2022-09-09T01:28:06;100718.22;;;14.72;100.00
69751;BME280;57335;52.288;6.056;2022-09-09T01:30:38;100728.84;;;14.77;99.91
69751;BME280;57335;52.288;6.056;2022-09-09T01:33:13;100729.91;;;14.76;99.83
69751;BME280;57335;52.288;6.056;2022-09-09T01:35:50;100727.47;;;14.74;99.92
69751;BME280;57335;52.288;6.056;2022-09-09T01:38:18;100728.19;;;14.70;100.00
69751;BME280;57335;52.288;6.056;2022-09-09T01:40:45;100739.31;;;14.72;100.00
69751;BME280;57335;52.288;6.056;2022-09-09T01:43:11;100737.69;;;14.71;99.77
69751;BME280;57335;52.288;6.056;2022-09-09T01:45:39;100742.19;;;14.70;100.00
69751;BME280;57335;52.288;6.056;2022-09-09T01:48:07;100728.31;;;14.63;100.00
69751;BME280;57335;52.288;6.056;2022-09-09T01:50:34;100738.63;;;14.65;99.68
69751;BME280;57335;52.288;6.056;2022-09-09T01:53:01;100740.81;;;14.68;99.80
69751;BME280;57335;52.288;6.056;2022-09-09T01:55:31;100736.81;;;14.65;99.55
69751;BME280;57335;52.288;6.056;2022-09-09T01:58:20;100746.56;;;14.65;99.87
69751;BME280;57335;52.288;6.056;2022-09-09T02:03:32;100743.84;;;14.60;99.32
69751;BME280;57335;52.288;6.056;2022-09-09T02:08:55;100724.03;;;14.45;99.64
69751;BME280;57335;52.288;6.056;2022-09-09T02:11:23;100730.31;;;14.44;100.00
69751;BME280;57335;52.288;6.056;2022-09-09T02:13:56;100730.13;;;14.34;100.00
69751;BME280;57335;52.288;6.056;2022-09-09T02:16:48;100726.50;;;14.11;100.00
69751;BME280;57335;52.288;6.056;2022-09-09T02:19:46;100735.78;;;14.02;100.00
69751;BME280;57335;52.288;6.056;2022-09-09T02:22:16;100734.44;;;14.00;100.00
69751;BME280;57335;52.288;6.056;2022-09-09T02:24:43;100733.94;;;14.03;100.00
69751;BME280;57335;52.288;6.056;2022-09-09T02:27:10;100723.88;;;14.00;100.00
69751;BME280;57335;52.288;6.056;2022-09-09T02:29:40;100726.63;;;14.05;100.00
69751;BME280;57335;52.288;6.056;2022-09-09T02:32:27;100727.09;;;14.02;100.00
69751;BME280;57335;52.288;6.056;2022-09-09T02:34:59;100727.53;;;13.99;100.00
69751;BME280;57335;52.288;6.056;2022-09-09T02:37:33;100727.44;;;13.93;100.00
69751;BME280;57335;52.288;6.056;2022-09-09T02:40:03;100710.72;;;13.88;100.00
69751;BME280;57335;52.288;6.056;2022-09-09T02:42:30;100713.81;;;13.85;100.00
69751;BME280;57335;52.288;6.056;2022-09-09T02:44:57;100713.25;;;13.83;100.00
69751;BME280;57335;52.288;6.056;2022-09-09T02:47:35;100717.50;;;13.84;100.00
69751;BME280;57335;52.288;6.056;2022-09-09T02:50:32;100716.78;;;13.76;100.00
69751;BME280;57335;52.288;6.056;2022-09-09T02:53:19;100721.16;;;13.71;100.00
69751;BME280;57335;52.288;6.056;2022-09-09T02:56:08;100705.94;;;13.61;100.00
69751;BME280;57335;52.288;6.056;2022-09-09T02:58:36;100713.72;;;13.56;100.00
69751;BME280;57335;52.288;6.056;2022-09-09T03:01:02;100712.56;;;13.52;100.00
69751;BME280;57335;52.288;6.056;2022-09-09T03:03:29;100722.06;;;13.53;100.00
69751;BME280;57335;52.288;6.056;2022-09-09T03:05:56;100723.31;;;13.39;100.00
69751;BME280;57335;52.288;6.056;2022-09-09T03:08:22;100725.47;;;13.30;100.00
69751;BME280;57335;52.288;6.056;2022-09-09T03:10:48;100727.25;;;13.17;100.00
69751;BME280;57335;52.288;6.056;2022-09-09T03:13:15;100718.06;;;13.08;100.00
69751;BME280;57335;52.288;6.056;2022-09-09T03:15:42;100727.81;;;13.08;100.00
69751;BME280;57335;52.288;6.056;2022-09-09T03:18:08;100720.59;;;13.03;100.00
69751;BME280;57335;52.288;6.056;2022-09-09T03:20:34;100721.03;;;13.00;100.00
69751;BME280;57335;52.288;6.056;2022-09-09T03:23:01;100713.69;;;12.90;100.00
69751;BME280;57335;52.288;6.056;2022-09-09T03:25:28;100721.94;;;12.94;100.00
69751;BME280;57335;52.288;6.056;2022-09-09T03:27:55;100709.53;;;12.83;100.00
69751;BME280;57335;52.288;6.056;2022-09-09T03:30:23;100711.38;;;12.82;100.00
69751;BME280;57335;52.288;6.056;2022-09-09T03:32:50;100721.66;;;12.84;100.00
69751;BME280;57335;52.288;6.056;2022-09-09T03:35:17;100723.50;;;12.83;100.00
69751;BME280;57335;52.288;6.056;2022-09-09T03:37:44;100729.09;;;12.87;100.00
69751;BME280;57335;52.288;6.056;2022-09-09T03:40:11;100719.34;;;12.75;100.00
69751;BME280;57335;52.288;6.056;2022-09-09T03:42:39;100728.19;;;12.81;100.00
69751;BME280;57335;52.288;6.056;2022-09-09T03:45:08;100725.88;;;12.73;100.00
69751;BME280;57335;52.288;6.056;2022-09-09T03:47:35;100723.47;;;12.71;100.00
69751;BME280;57335;52.288;6.056;2022-09-09T03:50:01;100723.09;;;12.68;100.00
69751;BME280;57335;52.288;6.056;2022-09-09T03:52:28;100722.06;;;12.69;100.00
69751;BME280;57335;52.288;6.056;2022-09-09T03:54:54;100725.50;;;12.69;100.00
69751;BME280;57335;52.288;6.056;2022-09-09T03:57:21;100727.09;;;12.70;100.00
69751;BME280;57335;52.288;6.056;2022-09-09T03:59:47;100713.84;;;12.65;100.00
69751;BME280;57335;52.288;6.056;2022-09-09T04:02:13;100737.97;;;12.74;100.00
69751;BME280;57335;52.288;6.056;2022-09-09T04:04:40;100733.53;;;12.74;100.00
69751;BME280;57335;52.288;6.056;2022-09-09T04:07:06;100741.41;;;12.74;100.00
69751;BME280;57335;52.288;6.056;2022-09-09T04:09:33;100721.72;;;12.65;100.00
69751;BME280;57335;52.288;6.056;2022-09-09T04:12:00;100719.88;;;12.66;100.00
69751;BME280;57335;52.288;6.056;2022-09-09T04:14:26;100731.34;;;12.71;100.00
69751;BME280;57335;52.288;6.056;2022-09-09T04:16:53;100735.00;;;12.70;100.00
69751;BME280;57335;52.288;6.056;2022-09-09T04:19:20;100728.56;;;12.66;100.00
69751;BME280;57335;52.288;6.056;2022-09-09T04:21:46;100735.22;;;12.69;100.00
69751;BME280;57335;52.288;6.056;2022-09-09T04:24:12;100735.66;;;12.66;100.00
69751;BME280;57335;52.288;6.056;2022-09-09T04:26:39;100719.69;;;12.67;100.00
69751;BME280;57335;52.288;6.056;2022-09-09T04:29:05;100718.78;;;12.73;100.00
69751;BME280;57335;52.288;6.056;2022-09-09T04:31:32;100719.78;;;12.72;100.00
69751;BME280;57335;52.288;6.056;2022-09-09T04:33:58;100711.69;;;12.74;100.00
69751;BME280;57335;52.288;6.056;2022-09-09T04:36:25;100704.38;;;12.76;100.00
69751;BME280;57335;52.288;6.056;2022-09-09T04:38:51;100715.03;;;12.81;100.00
69751;BME280;57335;52.288;6.056;2022-09-09T04:41:18;100720.06;;;12.83;100.00
69751;BME280;57335;52.288;6.056;2022-09-09T04:43:44;100716.78;;;12.87;100.00
69751;BME280;57335;52.288;6.056;2022-09-09T04:46:10;100715.88;;;12.93;100.00
69751;BME280;57335;52.288;6.056;2022-09-09T04:48:37;100708.19;;;12.92;100.00
69751;BME280;57335;52.288;6.056;2022-09-09T04:51:05;100694.84;;;12.93;100.00
69751;BME280;57335;52.288;6.056;2022-09-09T04:53:33;100718.97;;;13.02;100.00
69751;BME280;57335;52.288;6.056;2022-09-09T04:56:12;100704.88;;;12.96;100.00
69751;BME280;57335;52.288;6.056;2022-09-09T04:58:39;100710.88;;;13.04;100.00
69751;BME280;57335;52.288;6.056;2022-09-09T05:01:08;100713.03;;;13.07;100.00
69751;BME280;57335;52.288;6.056;2022-09-09T05:03:35;100720.13;;;13.06;100.00
69751;BME280;57335;52.288;6.056;2022-09-09T05:06:06;100714.66;;;13.08;100.00
69751;BME280;57335;52.288;6.056;2022-09-09T05:08:33;100710.06;;;13.03;100.00
69751;BME280;57335;52.288;6.056;2022-09-09T05:10:59;100705.97;;;13.07;100.00
69751;BME280;57335;52.288;6.056;2022-09-09T05:13:26;100718.22;;;13.13;100.00
69751;BME280;57335;52.288;6.056;2022-09-09T05:15:53;100700.22;;;13.10;100.00
69751;BME280;57335;52.288;6.056;2022-09-09T05:18:20;100704.38;;;13.18;100.00
69751;BME280;57335;52.288;6.056;2022-09-09T05:20:46;100716.19;;;13.27;100.00
69751;BME280;57335;52.288;6.056;2022-09-09T05:23:13;100708.28;;;13.27;100.00
69751;BME280;57335;52.288;6.056;2022-09-09T05:25:39;100706.84;;;13.31;100.00
69751;BME280;57335;52.288;6.056;2022-09-09T05:28:06;100701.97;;;13.28;100.00
69751;BME280;57335;52.288;6.056;2022-09-09T05:30:32;100690.66;;;13.28;100.00
69751;BME280;57335;52.288;6.056;2022-09-09T05:32:59;100694.69;;;13.30;100.00
69751;BME280;57335;52.288;6.056;2022-09-09T05:35:26;100695.13;;;13.27;100.00
69751;BME280;57335;52.288;6.056;2022-09-09T05:37:53;100703.03;;;13.27;100.00
69751;BME280;57335;52.288;6.056;2022-09-09T05:40:19;100686.31;;;13.22;100.00
69751;BME280;57335;52.288;6.056;2022-09-09T05:42:46;100682.41;;;13.24;100.00
69751;BME280;57335;52.288;6.056;2022-09-09T05:45:12;100698.69;;;13.33;100.00
69751;BME280;57335;52.288;6.056;2022-09-09T05:47:38;100698.47;;;13.34;100.00
69751;BME280;57335;52.288;6.056;2022-09-09T05:50:05;100713.25;;;13.47;100.00
69751;BME280;57335;52.288;6.056;2022-09-09T05:52:31;100699.28;;;13.47;100.00
69751;BME280;57335;52.288;6.056;2022-09-09T05:54:58;100711.22;;;13.61;100.00
69751;BME280;57335;52.288;6.056;2022-09-09T05:57:24;100711.44;;;13.71;100.00
69751;BME280;57335;52.288;6.056;2022-09-09T05:59:51;100714.72;;;13.79;100.00
69751;BME280;57335;52.288;6.056;2022-09-09T06:02:17;100713.72;;;13.80;100.00
69751;BME280;57335;52.288;6.056;2022-09-09T06:04:44;100718.41;;;13.77;100.00
69751;BME280;57335;52.288;6.056;2022-09-09T06:07:10;100712.00;;;13.73;100.00
69751;BME280;57335;52.288;6.056;2022-09-09T06:09:37;100702.38;;;13.67;100.00
69751;BME280;57335;52.288;6.056;2022-09-09T06:12:03;100707.88;;;13.77;100.00
69751;BME280;57335;52.288;6.056;2022-09-09T06:14:30;100703.19;;;13.80;100.00
69751;BME280;57335;52.288;6.056;2022-09-09T06:16:56;100708.66;;;14.02;100.00
69751;BME280;57335;52.288;6.056;2022-09-09T06:19:22;100718.91;;;14.27;100.00
69751;BME280;57335;52.288;6.056;2022-09-09T06:21:49;100711.44;;;14.35;100.00
69751;BME280;57335;52.288;6.056;2022-09-09T06:24:16;100711.09;;;14.32;100.00
69751;BME280;57335;52.288;6.056;2022-09-09T06:26:42;100710.53;;;14.30;100.00
69751;BME280;57335;52.288;6.056;2022-09-09T06:29:10;100710.31;;;14.31;100.00
69751;BME280;57335;52.288;6.056;2022-09-09T06:31:37;100698.78;;;14.49;100.00
69751;BME280;57335;52.288;6.056;2022-09-09T06:34:05;100709.38;;;14.95;100.00
69751;BME280;57335;52.288;6.056;2022-09-09T06:36:34;100708.84;;;15.44;100.00
69751;BME280;57335;52.288;6.056;2022-09-09T06:39:00;100709.00;;;15.93;95.78
69751;BME280;57335;52.288;6.056;2022-09-09T06:41:29;100712.59;;;16.48;93.10
69751;BME280;57335;52.288;6.056;2022-09-09T06:43:56;100708.59;;;17.00;90.48
69751;BME280;57335;52.288;6.056;2022-09-09T06:46:25;100700.44;;;17.44;88.00
69751;BME280;57335;52.288;6.056;2022-09-09T06:48:52;100710.63;;;18.10;87.58
69751;BME280;57335;52.288;6.056;2022-09-09T06:51:20;100718.22;;;18.59;81.51
69751;BME280;57335;52.288;6.056;2022-09-09T06:53:50;100719.91;;;19.01;79.88
69751;BME280;57335;52.288;6.056;2022-09-09T06:56:34;100725.47;;;19.20;79.13
69751;BME280;57335;52.288;6.056;2022-09-09T06:59:05;100723.63;;;18.85;77.78
69751;BME280;57335;52.288;6.056;2022-09-09T07:01:34;100717.44;;;18.48;78.92
69751;BME280;57335;52.288;6.056;2022-09-09T07:04:03;100714.72;;;18.33;80.93
69751;BME280;57335;52.288;6.056;2022-09-09T07:06:32;100719.84;;;17.92;82.65
69751;BME280;57335;52.288;6.056;2022-09-09T07:09:01;100720.91;;;17.91;83.50
69751;BME280;57335;52.288;6.056;2022-09-09T07:11:30;100716.75;;;18.16;82.15
69751;BME280;57335;52.288;6.056;2022-09-09T07:13:57;100708.63;;;18.38;81.38
69751;BME280;57335;52.288;6.056;2022-09-09T07:16:24;100715.81;;;18.42;80.77
69751;BME280;57335;52.288;6.056;2022-09-09T07:18:52;100717.41;;;18.53;81.55
69751;BME280;57335;52.288;6.056;2022-09-09T07:21:18;100712.53;;;18.20;81.98
69751;BME280;57335;52.288;6.056;2022-09-09T07:23:45;100714.06;;;18.05;82.60
69751;BME280;57335;52.288;6.056;2022-09-09T07:26:17;100721.59;;;18.29;82.74
69751;BME280;57335;52.288;6.056;2022-09-09T07:28:45;100719.28;;;18.58;81.83
69751;BME280;57335;52.288;6.056;2022-09-09T07:31:23;100722.03;;;19.04;81.15
69751;BME280;57335;52.288;6.056;2022-09-09T07:33:50;100724.66;;;19.61;77.68
69751;BME280;57335;52.288;6.056;2022-09-09T07:36:19;100720.63;;;19.89;75.90
69751;BME280;57335;52.288;6.056;2022-09-09T07:38:49;100725.16;;;19.68;75.79
69751;BME280;57335;52.288;6.056;2022-09-09T07:41:22;100714.53;;;19.58;75.97
69751;BME280;57335;52.288;6.056;2022-09-09T07:43:50;100711.41;;;19.20;78.38
69751;BME280;57335;52.288;6.056;2022-09-09T07:46:18;100714.06;;;18.89;78.86
69751;BME280;57335;52.288;6.056;2022-09-09T07:48:47;100715.13;;;19.03;78.51
69751;BME280;57335;52.288;6.056;2022-09-09T07:51:15;100712.69;;;18.76;80.74
69751;BME280;57335;52.288;6.056;2022-09-09T07:53:42;100712.13;;;18.74;80.07
69751;BME280;57335;52.288;6.056;2022-09-09T07:56:12;100718.03;;;18.81;80.57
69751;BME280;57335;52.288;6.056;2022-09-09T07:58:40;100711.59;;;18.62;81.08
69751;BME280;57335;52.288;6.056;2022-09-09T08:04:01;100703.16;;;18.85;79.12
69751;BME280;57335;52.288;6.056;2022-09-09T08:06:31;100713.94;;;18.48;80.29
69751;BME280;57335;52.288;6.056;2022-09-09T08:08:59;100710.44;;;18.32;81.05
69751;BME280;57335;52.288;6.056;2022-09-09T08:11:27;100720.50;;;18.14;81.03
69751;BME280;57335;52.288;6.056;2022-09-09T08:13:55;100709.34;;;18.18;82.16
69751;BME280;57335;52.288;6.056;2022-09-09T08:16:30;100722.41;;;18.34;81.95
69751;BME280;57335;52.288;6.056;2022-09-09T08:18:57;100716.59;;;18.43;80.13
69751;BME280;57335;52.288;6.056;2022-09-09T08:21:26;100731.47;;;18.54;80.59
69751;BME280;57335;52.288;6.056;2022-09-09T08:23:54;100727.00;;;18.54;80.68
69751;BME280;57335;52.288;6.056;2022-09-09T08:26:29;100722.22;;;18.57;80.90
69751;BME280;57335;52.288;6.056;2022-09-09T08:28:57;100713.97;;;18.53;79.94
69751;BME280;57335;52.288;6.056;2022-09-09T08:31:25;100726.19;;;18.59;80.62
69751;BME280;57335;52.288;6.056;2022-09-09T08:33:51;100725.38;;;18.48;79.69
69751;BME280;57335;52.288;6.056;2022-09-09T08:36:23;100715.53;;;18.39;80.52
69751;BME280;57335;52.288;6.056;2022-09-09T08:38:52;100725.06;;;18.40;80.22
69751;BME280;57335;52.288;6.056;2022-09-09T08:46:45;100734.84;;;18.24;81.73
69751;BME280;57335;52.288;6.056;2022-09-09T08:52:23;100738.09;;;18.41;81.21
69751;BME280;57335;52.288;6.056;2022-09-09T08:54:52;100740.50;;;18.58;81.55
69751;BME280;57335;52.288;6.056;2022-09-09T08:57:25;100727.00;;;18.70;80.21
69751;BME280;57335;52.288;6.056;2022-09-09T08:59:54;100719.34;;;18.79;78.90
69751;BME280;57335;52.288;6.056;2022-09-09T09:02:38;100730.19;;;18.72;77.35
69751;BME280;57335;52.288;6.056;2022-09-09T09:05:20;100741.34;;;18.69;77.74
69751;BME280;57335;52.288;6.056;2022-09-09T09:08:15;100742.63;;;18.56;77.76
69751;BME280;57335;52.288;6.056;2022-09-09T09:10:49;100739.94;;;18.41;78.78
69751;BME280;57335;52.288;6.056;2022-09-09T09:13:52;100749.19;;;18.33;78.60
69751;BME280;57335;52.288;6.056;2022-09-09T09:16:46;100756.34;;;18.27;78.42
69751;BME280;57335;52.288;6.056;2022-09-09T09:19:15;100757.91;;;18.23;79.19
69751;BME280;57335;52.288;6.056;2022-09-09T09:21:44;100758.31;;;18.00;79.59
69751;BME280;57335;52.288;6.056;2022-09-09T09:24:18;100758.28;;;17.89;81.15
69751;BME280;57335;52.288;6.056;2022-09-09T09:26:47;100754.31;;;17.92;81.44
69751;BME280;57335;52.288;6.056;2022-09-09T09:29:19;100763.63;;;17.94;80.73
69751;BME280;57335;52.288;6.056;2022-09-09T09:31:48;100765.78;;;18.03;81.24
69751;BME280;57335;52.288;6.056;2022-09-09T09:34:17;100752.28;;;18.09;79.61
69751;BME280;57335;52.288;6.056;2022-09-09T09:36:46;100758.16;;;18.17;80.19
69751;BME280;57335;52.288;6.056;2022-09-09T09:39:26;100755.53;;;18.22;79.72
69751;BME280;57335;52.288;6.056;2022-09-09T09:42:14;100756.34;;;18.27;80.22
69751;BME280;57335;52.288;6.056;2022-09-09T09:44:46;100749.13;;;18.12;79.43
69751;BME280;57335;52.288;6.056;2022-09-09T09:47:18;100762.09;;;18.14;78.93
69751;BME280;57335;52.288;6.056;2022-09-09T09:49:58;100766.03;;;18.01;79.69
69751;BME280;57335;52.288;6.056;2022-09-09T09:52:26;100767.66;;;18.07;79.00
69751;BME280;57335;52.288;6.056;2022-09-09T09:54:54;100747.47;;;18.01;79.16
69751;BME280;57335;52.288;6.056;2022-09-09T09:57:28;100764.22;;;18.07;79.85
69751;BME280;57335;52.288;6.056;2022-09-09T10:00:22;100759.22;;;18.16;81.22
69751;BME280;57335;52.288;6.056;2022-09-09T10:02:49;100768.53;;;18.23;80.02
69751;BME280;57335;52.288;6.056;2022-09-09T10:05:19;100768.56;;;18.33;79.06
69751;BME280;57335;52.288;6.056;2022-09-09T10:08:12;100765.19;;;18.48;78.46
69751;BME280;57335;52.288;6.056;2022-09-09T10:10:51;100763.59;;;18.52;79.01
69751;BME280;57335;52.288;6.056;2022-09-09T10:16:32;100762.03;;;18.57;77.33
69751;BME280;57335;52.288;6.056;2022-09-09T10:19:06;100759.38;;;18.57;75.68
69751;BME280;57335;52.288;6.056;2022-09-09T10:27:41;100755.59;;;18.37;76.42
69751;BME280;57335;52.288;6.056;2022-09-09T10:30:18;100754.53;;;18.38;76.87
69751;BME280;57335;52.288;6.056;2022-09-09T10:32:48;100761.94;;;18.31;76.16
69751;BME280;57335;52.288;6.056;2022-09-09T10:35:47;100763.88;;;18.56;76.93
69751;BME280;57335;52.288;6.056;2022-09-09T10:38:26;100758.66;;;18.82;73.43
69751;BME280;57335;52.288;6.056;2022-09-09T10:43:28;100756.84;;;19.39;72.99
69751;BME280;57335;52.288;6.056;2022-09-09T10:51:10;100730.25;;;19.33;71.06
69751;BME280;57335;52.288;6.056;2022-09-09T10:53:53;100741.44;;;19.30;71.08
69751;BME280;57335;52.288;6.056;2022-09-09T10:56:23;100737.44;;;19.28;71.54
69751;BME280;57335;52.288;6.056;2022-09-09T10:58:54;100745.41;;;19.12;72.03
69751;BME280;57335;52.288;6.056;2022-09-09T11:02:01;100755.75;;;19.14;72.19
69751;BME280;57335;52.288;6.056;2022-09-09T11:04:35;100757.66;;;19.08;73.47
69751;BME280;57335;52.288;6.056;2022-09-09T11:07:07;100757.38;;;19.05;73.50
69751;BME280;57335;52.288;6.056;2022-09-09T11:09:42;100756.31;;;19.01;73.48
69751;BME280;57335;52.288;6.056;2022-09-09T11:12:17;100753.09;;;18.83;72.37
69751;BME280;57335;52.288;6.056;2022-09-09T11:14:51;100751.19;;;18.79;73.88
69751;BME280;57335;52.288;6.056;2022-09-09T11:17:27;100747.97;;;18.71;75.10
69751;BME280;57335;52.288;6.056;2022-09-09T11:19:57;100751.72;;;18.70;74.53
69751;BME280;57335;52.288;6.056;2022-09-09T11:22:31;100755.69;;;18.73;75.33
69751;BME280;57335;52.288;6.056;2022-09-09T11:25:23;100749.91;;;18.81;75.18
69751;BME280;57335;52.288;6.056;2022-09-09T11:33:58;100745.38;;;18.82;74.34
69751;BME280;57335;52.288;6.056;2022-09-09T11:41:45;100744.06;;;18.84;73.89
69751;BME280;57335;52.288;6.056;2022-09-09T11:44:17;100749.91;;;18.86;74.16
69751;BME280;57335;52.288;6.056;2022-09-09T11:46:46;100743.53;;;18.98;74.10
69751;BME280;57335;52.288;6.056;2022-09-09T11:49:41;100743.81;;;19.22;73.17
69751;BME280;57335;52.288;6.056;2022-09-09T11:52:38;100744.63;;;19.32;74.47
69751;BME280;57335;52.288;6.056;2022-09-09T11:55:11;100739.03;;;19.39;73.11
69751;BME280;57335;52.288;6.056;2022-09-09T11:57:38;100737.41;;;19.38;72.18
69751;BME280;57335;52.288;6.056;2022-09-09T12:00:05;100747.25;;;19.22;73.35
69751;BME280;57335;52.288;6.056;2022-09-09T12:02:32;100741.41;;;19.36;72.84
69751;BME280;57335;52.288;6.056;2022-09-09T12:05:04;100753.63;;;19.42;74.05
69751;BME280;57335;52.288;6.056;2022-09-09T12:07:35;100751.00;;;19.31;78.03
69751;BME280;57335;52.288;6.056;2022-09-09T12:10:19;100738.22;;;19.18;78.37
69751;BME280;57335;52.288;6.056;2022-09-09T12:12:47;100742.50;;;19.19;78.49
69751;BME280;57335;52.288;6.056;2022-09-09T12:17:53;100744.31;;;19.44;81.04
69751;BME280;57335;52.288;6.056;2022-09-09T12:20:35;100740.31;;;19.62;81.50
69751;BME280;57335;52.288;6.056;2022-09-09T12:28:44;100737.13;;;19.70;75.17
69751;BME280;57335;52.288;6.056;2022-09-09T12:31:34;100735.03;;;19.72;76.63
69751;BME280;57335;52.288;6.056;2022-09-09T12:34:11;100741.63;;;19.70;76.33
69751;BME280;57335;52.288;6.056;2022-09-09T12:36:38;100740.84;;;19.69;75.80
69751;BME280;57335;52.288;6.056;2022-09-09T12:39:29;100745.38;;;19.53;72.84
69751;BME280;57335;52.288;6.056;2022-09-09T12:41:57;100734.50;;;19.40;73.65
69751;BME280;57335;52.288;6.056;2022-09-09T12:44:25;100735.03;;;19.16;74.27
69751;BME280;57335;52.288;6.056;2022-09-09T12:46:52;100740.34;;;19.06;75.94
69751;BME280;57335;52.288;6.056;2022-09-09T12:49:27;100738.25;;;19.03;75.84
69751;BME280;57335;52.288;6.056;2022-09-09T12:51:54;100744.59;;;19.02;76.14
69751;BME280;57335;52.288;6.056;2022-09-09T12:54:21;100728.91;;;19.00;76.15
69751;BME280;57335;52.288;6.056;2022-09-09T12:56:48;100730.78;;;19.10;75.31
69751;BME280;57335;52.288;6.056;2022-09-09T12:59:25;100722.03;;;19.09;75.30
69751;BME280;57335;52.288;6.056;2022-09-09T13:01:56;100728.94;;;19.16;74.34
69751;BME280;57335;52.288;6.056;2022-09-09T13:04:23;100729.47;;;19.23;74.38
69751;BME280;57335;52.288;6.056;2022-09-09T13:06:49;100722.56;;;19.22;75.40
69751;BME280;57335;52.288;6.056;2022-09-09T13:09:15;100722.84;;;19.30;75.14
69751;BME280;57335;52.288;6.056;2022-09-09T13:11:52;100722.03;;;19.25;75.64
69751;BME280;57335;52.288;6.056;2022-09-09T13:14:19;100724.97;;;19.28;74.38
69751;BME280;57335;52.288;6.056;2022-09-09T13:16:59;100718.81;;;19.38;75.27
69751;BME280;57335;52.288;6.056;2022-09-09T13:19:33;100715.63;;;19.46;77.02
69751;BME280;57335;52.288;6.056;2022-09-09T13:22:18;100703.66;;;19.59;73.91
69751;BME280;57335;52.288;6.056;2022-09-09T13:24:46;100700.97;;;19.69;73.51
69751;BME280;57335;52.288;6.056;2022-09-09T13:27:39;100708.94;;;19.80;72.79
69751;BME280;57335;52.288;6.056;2022-09-09T13:35:49;100702.56;;;19.81;72.83
69751;BME280;57335;52.288;6.056;2022-09-09T13:38:16;100702.31;;;19.72;73.00
69751;BME280;57335;52.288;6.056;2022-09-09T13:40:54;100702.56;;;19.81;72.57
69751;BME280;57335;52.288;6.056;2022-09-09T13:43:22;100698.28;;;19.85;72.52
69751;BME280;57335;52.288;6.056;2022-09-09T13:45:57;100698.31;;;19.64;73.53
69751;BME280;57335;52.288;6.056;2022-09-09T13:48:25;100703.66;;;19.75;72.67
69751;BME280;57335;52.288;6.056;2022-09-09T13:50:56;100703.13;;;19.52;72.75
69751;BME280;57335;52.288;6.056;2022-09-09T13:53:23;100699.44;;;19.38;73.52
69751;BME280;57335;52.288;6.056;2022-09-09T13:55:50;100693.06;;;19.33;73.80
69751;BME280;57335;52.288;6.056;2022-09-09T13:58:19;100696.78;;;19.43;73.63
69751;BME280;57335;52.288;6.056;2022-09-09T14:00:46;100706.34;;;19.49;73.65
69751;BME280;57335;52.288;6.056;2022-09-09T14:03:12;100693.59;;;19.30;74.39
69751;BME280;57335;52.288;6.056;2022-09-09T14:05:39;100710.09;;;19.17;76.94
69751;BME280;57335;52.288;6.056;2022-09-09T14:08:07;100714.31;;;19.08;78.43
69751;BME280;57335;52.288;6.056;2022-09-09T14:10:34;100705.56;;;19.07;78.19
69751;BME280;57335;52.288;6.056;2022-09-09T14:13:00;100699.72;;;19.05;80.33
69751;BME280;57335;52.288;6.056;2022-09-09T14:15:26;100705.28;;;19.04;80.13
69751;BME280;57335;52.288;6.056;2022-09-09T14:17:52;100702.38;;;19.00;80.19
69751;BME280;57335;52.288;6.056;2022-09-09T14:20:19;100690.16;;;18.89;80.55
69751;BME280;57335;52.288;6.056;2022-09-09T14:22:45;100701.03;;;18.98;80.49
69751;BME280;57335;52.288;6.056;2022-09-09T14:25:12;100693.59;;;19.00;80.88
69751;BME280;57335;52.288;6.056;2022-09-09T14:27:39;100696.00;;;18.96;79.92
69751;BME280;57335;52.288;6.056;2022-09-09T14:30:06;100707.41;;;19.02;79.69
69751;BME280;57335;52.288;6.056;2022-09-09T14:32:33;100713.28;;;19.09;79.83